sensor_id;sensor_type;location;lat;lon;timestamp;temperature;humidity
19252;DHT22;9760;50.944;5.304;2023-04-29T00:01:04;11.80;99.90
19252;DHT22;9760;50.944;5.304;2023-04-29T00:03:30;11.70;99.90
19252;DHT22;9760;50.944;5.304;2023-04-29T00:05:59;11.60;99.90
19252;DHT22;9760;50.944;5.304;2023-04-29T00:08:25;11.50;99.90
19252;DHT22;9760;50.944;5.304;2023-04-29T00:10:51;11.50;99.90
19252;DHT22;9760;50.944;5.304;2023-04-29T00:13:16;11.30;99.90
19252;DHT22;9760;50.944;5.304;2023-04-29T00:15:42;11.30;99.90
19252;DHT22;9760;50.944;5.304;2023-04-29T00:18:08;11.30;99.90
19252;DHT22;9760;50.944;5.304;2023-04-29T00:20:34;11.30;99.90
19252;DHT22;9760;50.944;5.304;2023-04-29T00:23:00;11.20;99.90
19252;DHT22;9760;50.944;5.304;2023-04-29T00:25:26;11.20;99.90
19252;DHT22;9760;50.944;5.304;2023-04-29T00:27:52;11.20;99.90
19252;DHT22;9760;50.944;5.304;2023-04-29T00:30:17;11.10;99.90
19252;DHT22;9760;50.944;5.304;2023-04-29T00:32:43;11.20;99.90
19252;DHT22;9760;50.944;5.304;2023-04-29T00:35:09;11.20;99.90
19252;DHT22;9760;50.944;5.304;2023-04-29T00:37:35;11.20;99.90
19252;DHT22;9760;50.944;5.304;2023-04-29T00:40:01;11.20;99.90
19252;DHT22;9760;50.944;5.304;2023-04-29T00:42:28;11.10;99.90
19252;DHT22;9760;50.944;5.304;2023-04-29T00:44:54;11.00;99.90
19252;DHT22;9760;50.944;5.304;2023-04-29T00:47:20;11.10;99.90
19252;DHT22;9760;50.944;5.304;2023-04-29T00:49:45;11.00;99.90
19252;DHT22;9760;50.944;5.304;2023-04-29T00:52:12;11.00;99.90
19252;DHT22;9760;50.944;5.304;2023-04-29T00:54:39;11.00;99.90
19252;DHT22;9760;50.944;5.304;2023-04-29T00:57:05;11.00;99.90
19252;DHT22;9760;50.944;5.304;2023-04-29T00:59:32;10.90;99.90
19252;DHT22;9760;50.944;5.304;2023-04-29T01:02:02;10.90;99.90
19252;DHT22;9760;50.944;5.304;2023-04-29T01:04:29;10.90;99.90
19252;DHT22;9760;50.944;5.304;2023-04-29T01:10:03;10.90;99.90
19252;DHT22;9760;50.944;5.304;2023-04-29T01:18:32;10.80;99.90
19252;DHT22;9760;50.944;5.304;2023-04-29T01:20:59;10.70;99.90
19252;DHT22;9760;50.944;5.304;2023-04-29T01:23:29;10.80;99.90
19252;DHT22;9760;50.944;5.304;2023-04-29T01:25:55;10.80;99.90
19252;DHT22;9760;50.944;5.304;2023-04-29T01:29:01;10.80;99.90
19252;DHT22;9760;50.944;5.304;2023-04-29T01:31:40;10.80;99.90
19252;DHT22;9760;50.944;5.304;2023-04-29T01:39:44;10.70;99.90
19252;DHT22;9760;50.944;5.304;2023-04-29T01:42:59;10.70;99.90
19252;DHT22;9760;50.944;5.304;2023-04-29T01:45:21;10.70;99.90
19252;DHT22;9760;50.944;5.304;2023-04-29T01:47:48;10.60;99.90
19252;DHT22;9760;50.944;5.304;2023-04-29T01:50:15;10.60;99.90
19252;DHT22;9760;50.944;5.304;2023-04-29T01:52:40;10.60;99.90
19252;DHT22;9760;50.944;5.304;2023-04-29T01:55:07;10.60;99.90
19252;DHT22;9760;50.944;5.304;2023-04-29T01:57:32;10.50;99.90
19252;DHT22;9760;50.944;5.304;2023-04-29T01:59:58;10.50;99.90
19252;DHT22;9760;50.944;5.304;2023-04-29T02:02:24;10.50;99.90
19252;DHT22;9760;50.944;5.304;2023-04-29T02:04:50;10.50;99.90
19252;DHT22;9760;50.944;5.304;2023-04-29T02:07:16;10.50;99.90
19252;DHT22;9760;50.944;5.304;2023-04-29T02:09:41;10.50;99.90
19252;DHT22;9760;50.944;5.304;2023-04-29T02:12:07;10.50;99.90
19252;DHT22;9760;50.944;5.304;2023-04-29T02:14:33;10.50;99.90
19252;DHT22;9760;50.944;5.304;2023-04-29T02:16:59;10.50;99.90
19252;DHT22;9760;50.944;5.304;2023-04-29T02:19:25;10.40;99.90
19252;DHT22;9760;50.944;5.304;2023-04-29T02:21:50;10.40;99.90
19252;DHT22;9760;50.944;5.304;2023-04-29T02:24:16;10.40;99.90
19252;DHT22;9760;50.944;5.304;2023-04-29T02:26:42;10.30;99.90
19252;DHT22;9760;50.944;5.304;2023-04-29T02:29:07;10.30;99.90
19252;DHT22;9760;50.944;5.304;2023-04-29T02:31:33;10.30;99.90
19252;DHT22;9760;50.944;5.304;2023-04-29T02:33:59;10.20;99.90
19252;DHT22;9760;50.944;5.304;2023-04-29T02:36:25;10.20;99.90
19252;DHT22;9760;50.944;5.304;2023-04-29T02:38:51;10.20;99.90
19252;DHT22;9760;50.944;5.304;2023-04-29T02:41:19;10.20;99.90
19252;DHT22;9760;50.944;5.304;2023-04-29T02:43:45;10.30;99.90
19252;DHT22;9760;50.944;5.304;2023-04-29T02:46:11;10.20;99.90
19252;DHT22;9760;50.944;5.304;2023-04-29T02:48:37;10.20;99.90
19252;DHT22;9760;50.944;5.304;2023-04-29T02:51:02;10.20;99.90
19252;DHT22;9760;50.944;5.304;2023-04-29T02:53:28;10.00;99.90
19252;DHT22;9760;50.944;5.304;2023-04-29T02:55:54;10.00;99.90
19252;DHT22;9760;50.944;5.304;2023-04-29T02:58:20;9.90;99.90
19252;DHT22;9760;50.944;5.304;2023-04-29T03:00:46;10.00;99.90
19252;DHT22;9760;50.944;5.304;2023-04-29T03:03:11;10.00;99.90
19252;DHT22;9760;50.944;5.304;2023-04-29T03:05:37;9.90;99.90
19252;DHT22;9760;50.944;5.304;2023-04-29T03:08:03;9.90;99.90
19252;DHT22;9760;50.944;5.304;2023-04-29T03:10:29;9.80;99.90
19252;DHT22;9760;50.944;5.304;2023-04-29T03:12:55;9.80;99.90
19252;DHT22;9760;50.944;5.304;2023-04-29T03:15:21;9.80;99.90
19252;DHT22;9760;50.944;5.304;2023-04-29T03:17:46;9.90;99.90
19252;DHT22;9760;50.944;5.304;2023-04-29T03:20:13;9.80;99.90
19252;DHT22;9760;50.944;5.304;2023-04-29T03:22:38;9.90;99.90
19252;DHT22;9760;50.944;5.304;2023-04-29T03:25:04;9.90;99.90
19252;DHT22;9760;50.944;5.304;2023-04-29T03:27:30;9.90;99.90
19252;DHT22;9760;50.944;5.304;2023-04-29T03:29:56;9.90;99.90
19252;DHT22;9760;50.944;5.304;2023-04-29T03:32:22;9.90;99.90
19252;DHT22;9760;50.944;5.304;2023-04-29T03:34:48;10.00;99.90
19252;DHT22;9760;50.944;5.304;2023-04-29T03:37:14;10.00;99.90
19252;DHT22;9760;50.944;5.304;2023-04-29T03:39:42;10.00;99.90
19252;DHT22;9760;50.944;5.304;2023-04-29T03:42:08;9.90;99.90
19252;DHT22;9760;50.944;5.304;2023-04-29T03:44:33;10.00;99.90
19252;DHT22;9760;50.944;5.304;2023-04-29T03:46:59;10.00;99.90
19252;DHT22;9760;50.944;5.304;2023-04-29T03:49:25;10.00;99.90
19252;DHT22;9760;50.944;5.304;2023-04-29T03:51:50;10.00;99.90
19252;DHT22;9760;50.944;5.304;2023-04-29T03:54:17;10.00;99.90
19252;DHT22;9760;50.944;5.304;2023-04-29T03:56:42;9.90;99.90
19252;DHT22;9760;50.944;5.304;2023-04-29T03:59:08;9.90;99.90
19252;DHT22;9760;50.944;5.304;2023-04-29T04:01:34;9.90;99.90
19252;DHT22;9760;50.944;5.304;2023-04-29T04:03:59;9.90;99.90
19252;DHT22;9760;50.944;5.304;2023-04-29T04:06:25;9.90;99.90
19252;DHT22;9760;50.944;5.304;2023-04-29T04:08:51;9.90;99.90
19252;DHT22;9760;50.944;5.304;2023-04-29T04:11:16;9.90;99.90
19252;DHT22;9760;50.944;5.304;2023-04-29T04:13:42;9.80;99.90
19252;DHT22;9760;50.944;5.304;2023-04-29T04:16:09;9.80;99.90
19252;DHT22;9760;50.944;5.304;2023-04-29T04:18:38;9.80;99.90
19252;DHT22;9760;50.944;5.304;2023-04-29T04:21:07;9.80;99.90
19252;DHT22;9760;50.944;5.304;2023-04-29T04:23:33;9.80;99.90
19252;DHT22;9760;50.944;5.304;2023-04-29T04:25:59;9.80;99.90
19252;DHT22;9760;50.944;5.304;2023-04-29T04:28:25;9.90;99.90
19252;DHT22;9760;50.944;5.304;2023-04-29T04:30:50;9.80;99.90
19252;DHT22;9760;50.944;5.304;2023-04-29T04:33:16;9.80;99.90
19252;DHT22;9760;50.944;5.304;2023-04-29T04:35:42;9.80;99.90
19252;DHT22;9760;50.944;5.304;2023-04-29T04:38:08;9.80;99.90
19252;DHT22;9760;50.944;5.304;2023-04-29T04:40:35;9.80;99.90
19252;DHT22;9760;50.944;5.304;2023-04-29T04:43:01;9.80;99.90
19252;DHT22;9760;50.944;5.304;2023-04-29T04:45:27;9.80;99.90
19252;DHT22;9760;50.944;5.304;2023-04-29T04:47:54;9.90;99.90
19252;DHT22;9760;50.944;5.304;2023-04-29T04:50:20;10.00;99.90
19252;DHT22;9760;50.944;5.304;2023-04-29T04:52:46;10.00;99.90
19252;DHT22;9760;50.944;5.304;2023-04-29T04:55:11;10.00;99.90
19252;DHT22;9760;50.944;5.304;2023-04-29T04:57:37;9.90;99.90
19252;DHT22;9760;50.944;5.304;2023-04-29T05:00:03;9.90;99.90
19252;DHT22;9760;50.944;5.304;2023-04-29T05:02:29;10.00;99.90
19252;DHT22;9760;50.944;5.304;2023-04-29T05:04:55;10.00;99.90
19252;DHT22;9760;50.944;5.304;2023-04-29T05:07:21;10.00;99.90
19252;DHT22;9760;50.944;5.304;2023-04-29T05:09:46;9.90;99.90
19252;DHT22;9760;50.944;5.304;2023-04-29T05:12:12;10.00;99.90
19252;DHT22;9760;50.944;5.304;2023-04-29T05:14:38;10.00;99.90
19252;DHT22;9760;50.944;5.304;2023-04-29T05:17:04;10.00;99.90
19252;DHT22;9760;50.944;5.304;2023-04-29T05:19:29;10.00;99.90
19252;DHT22;9760;50.944;5.304;2023-04-29T05:21:55;10.00;99.90
19252;DHT22;9760;50.944;5.304;2023-04-29T05:24:21;10.00;99.90
19252;DHT22;9760;50.944;5.304;2023-04-29T05:26:47;9.90;99.90
19252;DHT22;9760;50.944;5.304;2023-04-29T05:29:16;10.00;99.90
19252;DHT22;9760;50.944;5.304;2023-04-29T05:31:41;10.00;99.90
19252;DHT22;9760;50.944;5.304;2023-04-29T05:34:07;9.90;99.90
19252;DHT22;9760;50.944;5.304;2023-04-29T05:36:33;9.90;99.90
19252;DHT22;9760;50.944;5.304;2023-04-29T05:38:59;9.90;99.90
19252;DHT22;9760;50.944;5.304;2023-04-29T05:41:24;9.90;99.90
19252;DHT22;9760;50.944;5.304;2023-04-29T05:43:51;9.90;99.90
19252;DHT22;9760;50.944;5.304;2023-04-29T05:46:16;9.80;99.90
19252;DHT22;9760;50.944;5.304;2023-04-29T05:48:42;9.80;99.90
19252;DHT22;9760;50.944;5.304;2023-04-29T05:51:08;9.80;99.90
19252;DHT22;9760;50.944;5.304;2023-04-29T05:53:34;9.80;99.90
19252;DHT22;9760;50.944;5.304;2023-04-29T05:56:00;9.70;99.90
19252;DHT22;9760;50.944;5.304;2023-04-29T05:58:29;9.60;99.90
19252;DHT22;9760;50.944;5.304;2023-04-29T06:00:55;9.70;99.90
19252;DHT22;9760;50.944;5.304;2023-04-29T06:03:20;9.70;99.90
19252;DHT22;9760;50.944;5.304;2023-04-29T06:05:46;9.60;99.90
19252;DHT22;9760;50.944;5.304;2023-04-29T06:08:12;9.50;99.90
19252;DHT22;9760;50.944;5.304;2023-04-29T06:10:38;9.50;99.90
19252;DHT22;9760;50.944;5.304;2023-04-29T06:13:04;9.50;99.90
19252;DHT22;9760;50.944;5.304;2023-04-29T06:15:29;9.60;99.90
19252;DHT22;9760;50.944;5.304;2023-04-29T06:17:55;9.60;99.90
19252;DHT22;9760;50.944;5.304;2023-04-29T06:20:21;9.50;99.90
19252;DHT22;9760;50.944;5.304;2023-04-29T06:22:46;9.50;99.90
19252;DHT22;9760;50.944;5.304;2023-04-29T06:25:12;9.50;99.90
19252;DHT22;9760;50.944;5.304;2023-04-29T06:27:38;9.60;99.90
19252;DHT22;9760;50.944;5.304;2023-04-29T06:30:04;9.60;99.90
19252;DHT22;9760;50.944;5.304;2023-04-29T06:32:30;9.60;99.90
19252;DHT22;9760;50.944;5.304;2023-04-29T06:34:56;9.60;99.90
19252;DHT22;9760;50.944;5.304;2023-04-29T06:37:25;9.60;99.90
19252;DHT22;9760;50.944;5.304;2023-04-29T06:39:52;9.60;99.90
19252;DHT22;9760;50.944;5.304;2023-04-29T06:42:18;9.60;99.90
19252;DHT22;9760;50.944;5.304;2023-04-29T06:44:43;9.70;99.90
19252;DHT22;9760;50.944;5.304;2023-04-29T06:47:09;9.70;99.90
19252;DHT22;9760;50.944;5.304;2023-04-29T06:49:35;9.70;99.90
19252;DHT22;9760;50.944;5.304;2023-04-29T06:52:01;9.70;99.90
19252;DHT22;9760;50.944;5.304;2023-04-29T06:54:27;9.60;99.90
19252;DHT22;9760;50.944;5.304;2023-04-29T06:56:53;9.60;99.90
19252;DHT22;9760;50.944;5.304;2023-04-29T06:59:18;9.70;99.90
19252;DHT22;9760;50.944;5.304;2023-04-29T07:01:44;9.60;99.90
19252;DHT22;9760;50.944;5.304;2023-04-29T07:04:10;9.70;99.90
19252;DHT22;9760;50.944;5.304;2023-04-29T07:06:36;9.70;99.90
19252;DHT22;9760;50.944;5.304;2023-04-29T07:09:02;9.80;99.90
19252;DHT22;9760;50.944;5.304;2023-04-29T07:11:28;9.80;99.90
19252;DHT22;9760;50.944;5.304;2023-04-29T07:13:53;9.80;99.90
19252;DHT22;9760;50.944;5.304;2023-04-29T07:16:19;9.70;99.90
19252;DHT22;9760;50.944;5.304;2023-04-29T07:18:47;9.70;99.90
19252;DHT22;9760;50.944;5.304;2023-04-29T07:21:13;9.70;99.90
19252;DHT22;9760;50.944;5.304;2023-04-29T07:23:39;9.70;99.90
19252;DHT22;9760;50.944;5.304;2023-04-29T07:26:12;9.80;99.90
19252;DHT22;9760;50.944;5.304;2023-04-29T07:28:38;9.90;99.90
19252;DHT22;9760;50.944;5.304;2023-04-29T07:31:05;9.80;99.90
19252;DHT22;9760;50.944;5.304;2023-04-29T07:33:32;9.90;99.90
19252;DHT22;9760;50.944;5.304;2023-04-29T07:35:58;10.00;99.90
19252;DHT22;9760;50.944;5.304;2023-04-29T07:38:24;10.10;99.90
19252;DHT22;9760;50.944;5.304;2023-04-29T07:40:49;10.10;99.90
19252;DHT22;9760;50.944;5.304;2023-04-29T07:43:15;10.10;99.90
19252;DHT22;9760;50.944;5.304;2023-04-29T07:45:41;10.10;99.90
19252;DHT22;9760;50.944;5.304;2023-04-29T07:48:06;10.10;99.90
19252;DHT22;9760;50.944;5.304;2023-04-29T07:50:34;10.20;99.90
19252;DHT22;9760;50.944;5.304;2023-04-29T07:53:01;10.10;99.90
19252;DHT22;9760;50.944;5.304;2023-04-29T07:55:27;10.20;99.90
19252;DHT22;9760;50.944;5.304;2023-04-29T07:57:57;10.20;99.90
19252;DHT22;9760;50.944;5.304;2023-04-29T08:00:23;10.20;99.90
19252;DHT22;9760;50.944;5.304;2023-04-29T08:02:53;10.20;99.90
19252;DHT22;9760;50.944;5.304;2023-04-29T08:05:20;10.30;99.90
19252;DHT22;9760;50.944;5.304;2023-04-29T08:07:46;10.30;99.90
19252;DHT22;9760;50.944;5.304;2023-04-29T08:10:13;10.10;99.90
19252;DHT22;9760;50.944;5.304;2023-04-29T08:12:39;10.20;99.90
19252;DHT22;9760;50.944;5.304;2023-04-29T08:15:05;10.20;99.90
19252;DHT22;9760;50.944;5.304;2023-04-29T08:17:31;10.10;99.90
19252;DHT22;9760;50.944;5.304;2023-04-29T08:19:57;10.10;99.90
19252;DHT22;9760;50.944;5.304;2023-04-29T08:22:22;10.20;99.90
19252;DHT22;9760;50.944;5.304;2023-04-29T08:24:48;10.30;99.90
19252;DHT22;9760;50.944;5.304;2023-04-29T08:27:14;10.40;99.90
19252;DHT22;9760;50.944;5.304;2023-04-29T08:29:42;10.50;99.90
19252;DHT22;9760;50.944;5.304;2023-04-29T08:32:08;10.60;99.90
19252;DHT22;9760;50.944;5.304;2023-04-29T08:34:34;10.50;99.90
19252;DHT22;9760;50.944;5.304;2023-04-29T08:37:01;10.40;99.90
19252;DHT22;9760;50.944;5.304;2023-04-29T08:39:28;10.50;99.90
19252;DHT22;9760;50.944;5.304;2023-04-29T08:41:56;10.50;99.90
19252;DHT22;9760;50.944;5.304;2023-04-29T08:44:22;10.80;99.90
19252;DHT22;9760;50.944;5.304;2023-04-29T08:46:50;10.90;99.90
19252;DHT22;9760;50.944;5.304;2023-04-29T08:49:15;11.00;99.90
19252;DHT22;9760;50.944;5.304;2023-04-29T08:51:41;11.10;99.90
19252;DHT22;9760;50.944;5.304;2023-04-29T08:54:07;11.30;99.90
19252;DHT22;9760;50.944;5.304;2023-04-29T08:56:33;11.40;99.90
19252;DHT22;9760;50.944;5.304;2023-04-29T08:59:00;11.50;99.90
19252;DHT22;9760;50.944;5.304;2023-04-29T09:01:27;11.40;99.90
19252;DHT22;9760;50.944;5.304;2023-04-29T09:04:03;11.30;99.90
19252;DHT22;9760;50.944;5.304;2023-04-29T09:06:31;11.20;99.90
19252;DHT22;9760;50.944;5.304;2023-04-29T09:08:59;11.20;99.90
19252;DHT22;9760;50.944;5.304;2023-04-29T09:11:26;11.30;99.90
19252;DHT22;9760;50.944;5.304;2023-04-29T09:14:01;11.30;99.90
19252;DHT22;9760;50.944;5.304;2023-04-29T09:16:29;11.10;99.90
19252;DHT22;9760;50.944;5.304;2023-04-29T09:18:55;11.10;99.90
19252;DHT22;9760;50.944;5.304;2023-04-29T09:21:26;11.10;99.90
19252;DHT22;9760;50.944;5.304;2023-04-29T09:23:53;11.10;99.90
19252;DHT22;9760;50.944;5.304;2023-04-29T09:26:19;11.20;99.90
19252;DHT22;9760;50.944;5.304;2023-04-29T09:28:46;11.50;99.90
19252;DHT22;9760;50.944;5.304;2023-04-29T09:31:14;11.60;99.90
19252;DHT22;9760;50.944;5.304;2023-04-29T09:33:52;11.70;99.90
19252;DHT22;9760;50.944;5.304;2023-04-29T09:36:42;11.90;99.90
19252;DHT22;9760;50.944;5.304;2023-04-29T09:39:15;12.10;99.90
19252;DHT22;9760;50.944;5.304;2023-04-29T09:44:32;12.40;99.90
19252;DHT22;9760;50.944;5.304;2023-04-29T09:47:05;12.30;99.90
19252;DHT22;9760;50.944;5.304;2023-04-29T09:49:40;12.20;99.90
19252;DHT22;9760;50.944;5.304;2023-04-29T09:52:08;12.20;99.90
19252;DHT22;9760;50.944;5.304;2023-04-29T09:54:36;12.40;99.90
19252;DHT22;9760;50.944;5.304;2023-04-29T09:57:03;12.50;99.90
19252;DHT22;9760;50.944;5.304;2023-04-29T09:59:31;12.50;99.90
19252;DHT22;9760;50.944;5.304;2023-04-29T10:01:59;12.60;99.90
19252;DHT22;9760;50.944;5.304;2023-04-29T10:04:26;12.60;99.90
19252;DHT22;9760;50.944;5.304;2023-04-29T10:06:53;12.90;99.90
19252;DHT22;9760;50.944;5.304;2023-04-29T10:09:21;13.00;99.90
19252;DHT22;9760;50.944;5.304;2023-04-29T10:11:48;13.00;99.90
19252;DHT22;9760;50.944;5.304;2023-04-29T10:14:16;12.80;99.90
19252;DHT22;9760;50.944;5.304;2023-04-29T10:19:35;13.10;99.90
19252;DHT22;9760;50.944;5.304;2023-04-29T10:22:08;13.10;99.90
19252;DHT22;9760;50.944;5.304;2023-04-29T10:24:36;13.30;99.90
19252;DHT22;9760;50.944;5.304;2023-04-29T10:27:06;13.50;99.90
19252;DHT22;9760;50.944;5.304;2023-04-29T10:29:33;13.50;99.90
19252;DHT22;9760;50.944;5.304;2023-04-29T10:32:02;13.50;99.90
19252;DHT22;9760;50.944;5.304;2023-04-29T10:34:29;13.30;99.90
19252;DHT22;9760;50.944;5.304;2023-04-29T10:36:56;13.40;99.90
19252;DHT22;9760;50.944;5.304;2023-04-29T10:39:35;13.20;99.90
19252;DHT22;9760;50.944;5.304;2023-04-29T10:42:05;13.20;99.90
19252;DHT22;9760;50.944;5.304;2023-04-29T10:53:28;13.70;99.90
19252;DHT22;9760;50.944;5.304;2023-04-29T10:55:58;13.70;99.90
19252;DHT22;9760;50.944;5.304;2023-04-29T11:00:59;13.80;99.90
19252;DHT22;9760;50.944;5.304;2023-04-29T11:03:54;13.50;99.90
19252;DHT22;9760;50.944;5.304;2023-04-29T11:17:07;14.20;99.90
19252;DHT22;9760;50.944;5.304;2023-04-29T11:19:44;14.20;99.90
19252;DHT22;9760;50.944;5.304;2023-04-29T11:22:24;14.50;99.90
19252;DHT22;9760;50.944;5.304;2023-04-29T11:24:51;14.70;99.90
19252;DHT22;9760;50.944;5.304;2023-04-29T11:27:21;14.90;99.90
19252;DHT22;9760;50.944;5.304;2023-04-29T11:29:50;15.00;99.90
19252;DHT22;9760;50.944;5.304;2023-04-29T11:32:19;14.90;99.90
19252;DHT22;9760;50.944;5.304;2023-04-29T11:34:46;14.70;99.90
19252;DHT22;9760;50.944;5.304;2023-04-29T11:37:12;14.70;99.90
19252;DHT22;9760;50.944;5.304;2023-04-29T11:39:37;15.10;99.90
19252;DHT22;9760;50.944;5.304;2023-04-29T11:42:06;15.30;99.90
19252;DHT22;9760;50.944;5.304;2023-04-29T11:44:33;15.70;99.90
19252;DHT22;9760;50.944;5.304;2023-04-29T11:47:04;15.90;99.90
19252;DHT22;9760;50.944;5.304;2023-04-29T11:49:34;16.30;99.90
19252;DHT22;9760;50.944;5.304;2023-04-29T11:52:00;16.40;99.90
19252;DHT22;9760;50.944;5.304;2023-04-29T11:54:27;16.40;99.90
19252;DHT22;9760;50.944;5.304;2023-04-29T11:56:54;16.30;99.90
19252;DHT22;9760;50.944;5.304;2023-04-29T11:59:20;16.10;99.90
19252;DHT22;9760;50.944;5.304;2023-04-29T12:01:49;15.80;99.90
19252;DHT22;9760;50.944;5.304;2023-04-29T12:04:16;15.90;99.90
19252;DHT22;9760;50.944;5.304;2023-04-29T12:06:42;16.10;99.90
19252;DHT22;9760;50.944;5.304;2023-04-29T12:09:08;16.10;99.90
19252;DHT22;9760;50.944;5.304;2023-04-29T12:11:35;16.00;99.90
19252;DHT22;9760;50.944;5.304;2023-04-29T12:14:02;15.70;99.90
19252;DHT22;9760;50.944;5.304;2023-04-29T12:16:31;15.50;99.90
19252;DHT22;9760;50.944;5.304;2023-04-29T12:18:57;15.60;99.90
19252;DHT22;9760;50.944;5.304;2023-04-29T12:21:23;15.40;99.90
19252;DHT22;9760;50.944;5.304;2023-04-29T12:23:50;15.30;99.90
19252;DHT22;9760;50.944;5.304;2023-04-29T12:26:16;15.30;99.90
19252;DHT22;9760;50.944;5.304;2023-04-29T12:28:43;14.90;99.90
19252;DHT22;9760;50.944;5.304;2023-04-29T12:31:09;14.50;99.90
19252;DHT22;9760;50.944;5.304;2023-04-29T12:33:41;14.30;99.90
19252;DHT22;9760;50.944;5.304;2023-04-29T12:36:15;14.30;99.90
19252;DHT22;9760;50.944;5.304;2023-04-29T12:38:46;14.10;99.90
19252;DHT22;9760;50.944;5.304;2023-04-29T12:41:13;14.10;99.90
19252;DHT22;9760;50.944;5.304;2023-04-29T12:43:41;14.00;99.90
19252;DHT22;9760;50.944;5.304;2023-04-29T12:46:08;14.10;99.90
19252;DHT22;9760;50.944;5.304;2023-04-29T12:48:36;14.10;99.90
19252;DHT22;9760;50.944;5.304;2023-04-29T12:51:11;14.20;99.90
19252;DHT22;9760;50.944;5.304;2023-04-29T12:53:37;14.30;99.90
19252;DHT22;9760;50.944;5.304;2023-04-29T12:56:04;14.30;99.90
19252;DHT22;9760;50.944;5.304;2023-04-29T12:58:30;14.60;99.90
19252;DHT22;9760;50.944;5.304;2023-04-29T13:00:57;14.80;99.90
19252;DHT22;9760;50.944;5.304;2023-04-29T13:03:23;14.70;99.90
19252;DHT22;9760;50.944;5.304;2023-04-29T13:05:49;14.90;99.90
19252;DHT22;9760;50.944;5.304;2023-04-29T13:08:18;14.90;99.90
19252;DHT22;9760;50.944;5.304;2023-04-29T13:10:44;15.00;99.90
19252;DHT22;9760;50.944;5.304;2023-04-29T13:13:10;15.10;99.90
19252;DHT22;9760;50.944;5.304;2023-04-29T13:15:35;14.90;99.90
19252;DHT22;9760;50.944;5.304;2023-04-29T13:18:03;14.90;99.90
19252;DHT22;9760;50.944;5.304;2023-04-29T13:20:29;14.80;99.90
19252;DHT22;9760;50.944;5.304;2023-04-29T13:22:55;14.80;99.90
19252;DHT22;9760;50.944;5.304;2023-04-29T13:25:20;14.90;99.90
19252;DHT22;9760;50.944;5.304;2023-04-29T13:27:46;15.30;99.90
19252;DHT22;9760;50.944;5.304;2023-04-29T13:30:12;15.60;99.90
19252;DHT22;9760;50.944;5.304;2023-04-29T13:32:38;15.70;99.90
19252;DHT22;9760;50.944;5.304;2023-04-29T13:35:06;15.90;99.90
19252;DHT22;9760;50.944;5.304;2023-04-29T13:37:31;15.90;99.90
19252;DHT22;9760;50.944;5.304;2023-04-29T13:39:57;15.90;99.90
19252;DHT22;9760;50.944;5.304;2023-04-29T13:42:23;15.90;99.90
19252;DHT22;9760;50.944;5.304;2023-04-29T13:44:48;15.70;99.90
19252;DHT22;9760;50.944;5.304;2023-04-29T13:47:15;15.30;99.90
19252;DHT22;9760;50.944;5.304;2023-04-29T13:49:42;15.30;99.90
19252;DHT22;9760;50.944;5.304;2023-04-29T13:52:11;15.20;99.90
19252;DHT22;9760;50.944;5.304;2023-04-29T13:54:37;15.10;99.90
19252;DHT22;9760;50.944;5.304;2023-04-29T13:57:03;14.70;99.90
19252;DHT22;9760;50.944;5.304;2023-04-29T13:59:34;14.50;99.90
19252;DHT22;9760;50.944;5.304;2023-04-29T14:02:01;14.40;99.90
19252;DHT22;9760;50.944;5.304;2023-04-29T14:04:27;14.40;99.90
19252;DHT22;9760;50.944;5.304;2023-04-29T14:06:54;14.50;99.90
19252;DHT22;9760;50.944;5.304;2023-04-29T14:09:20;14.70;99.90
19252;DHT22;9760;50.944;5.304;2023-04-29T14:11:47;15.00;99.90
19252;DHT22;9760;50.944;5.304;2023-04-29T14:14:13;15.10;99.90
19252;DHT22;9760;50.944;5.304;2023-04-29T14:16:39;15.20;99.90
19252;DHT22;9760;50.944;5.304;2023-04-29T14:19:05;15.40;99.90
19252;DHT22;9760;50.944;5.304;2023-04-29T14:21:31;15.60;99.90
19252;DHT22;9760;50.944;5.304;2023-04-29T14:23:58;15.80;99.90
19252;DHT22;9760;50.944;5.304;2023-04-29T14:26:25;15.90;99.90
19252;DHT22;9760;50.944;5.304;2023-04-29T14:28:51;15.90;99.90
19252;DHT22;9760;50.944;5.304;2023-04-29T14:31:27;15.80;99.90
19252;DHT22;9760;50.944;5.304;2023-04-29T14:33:57;16.00;99.90
19252;DHT22;9760;50.944;5.304;2023-04-29T14:36:23;15.90;99.90
19252;DHT22;9760;50.944;5.304;2023-04-29T14:38:48;15.90;99.90
19252;DHT22;9760;50.944;5.304;2023-04-29T14:41:14;15.70;99.90
19252;DHT22;9760;50.944;5.304;2023-04-29T14:43:40;15.50;99.90
19252;DHT22;9760;50.944;5.304;2023-04-29T14:46:07;15.30;99.90
19252;DHT22;9760;50.944;5.304;2023-04-29T14:48:33;15.30;99.90
19252;DHT22;9760;50.944;5.304;2023-04-29T14:50:59;15.40;99.90
19252;DHT22;9760;50.944;5.304;2023-04-29T14:53:25;15.30;99.90
19252;DHT22;9760;50.944;5.304;2023-04-29T14:55:50;15.30;99.90
19252;DHT22;9760;50.944;5.304;2023-04-29T14:58:16;15.40;99.90
19252;DHT22;9760;50.944;5.304;2023-04-29T15:00:42;15.50;99.90
19252;DHT22;9760;50.944;5.304;2023-04-29T15:03:08;15.60;99.90
19252;DHT22;9760;50.944;5.304;2023-04-29T15:05:34;15.80;99.90
19252;DHT22;9760;50.944;5.304;2023-04-29T15:08:00;15.80;99.90
19252;DHT22;9760;50.944;5.304;2023-04-29T15:10:29;15.80;99.90
19252;DHT22;9760;50.944;5.304;2023-04-29T15:12:55;16.10;99.90
19252;DHT22;9760;50.944;5.304;2023-04-29T15:15:21;16.30;99.90
19252;DHT22;9760;50.944;5.304;2023-04-29T15:17:47;16.40;99.90
19252;DHT22;9760;50.944;5.304;2023-04-29T15:20:13;16.70;99.90
19252;DHT22;9760;50.944;5.304;2023-04-29T15:22:39;16.40;99.90
19252;DHT22;9760;50.944;5.304;2023-04-29T15:25:06;16.50;99.90
19252;DHT22;9760;50.944;5.304;2023-04-29T15:27:35;16.50;99.90
19252;DHT22;9760;50.944;5.304;2023-04-29T15:30:02;16.40;99.90
19252;DHT22;9760;50.944;5.304;2023-04-29T15:32:28;16.40;99.90
19252;DHT22;9760;50.944;5.304;2023-04-29T15:35:01;16.10;99.90
19252;DHT22;9760;50.944;5.304;2023-04-29T15:37:28;16.00;99.90
19252;DHT22;9760;50.944;5.304;2023-04-29T15:39:54;15.90;99.90
19252;DHT22;9760;50.944;5.304;2023-04-29T15:42:20;15.90;99.90
19252;DHT22;9760;50.944;5.304;2023-04-29T15:44:46;16.00;99.90
19252;DHT22;9760;50.944;5.304;2023-04-29T15:47:12;15.80;99.90
19252;DHT22;9760;50.944;5.304;2023-04-29T15:49:38;15.90;99.90
19252;DHT22;9760;50.944;5.304;2023-04-29T15:52:04;16.00;99.90
19252;DHT22;9760;50.944;5.304;2023-04-29T15:54:30;16.10;99.90
19252;DHT22;9760;50.944;5.304;2023-04-29T15:56:56;16.10;99.90
19252;DHT22;9760;50.944;5.304;2023-04-29T15:59:21;16.20;99.90
19252;DHT22;9760;50.944;5.304;2023-04-29T16:01:47;16.20;99.90
19252;DHT22;9760;50.944;5.304;2023-04-29T16:04:13;16.00;99.90
19252;DHT22;9760;50.944;5.304;2023-04-29T16:06:38;16.00;99.90
19252;DHT22;9760;50.944;5.304;2023-04-29T16:09:05;16.00;99.90
19252;DHT22;9760;50.944;5.304;2023-04-29T16:11:31;16.00;99.90
19252;DHT22;9760;50.944;5.304;2023-04-29T16:13:57;15.90;99.90
19252;DHT22;9760;50.944;5.304;2023-04-29T16:16:23;15.90;99.90
19252;DHT22;9760;50.944;5.304;2023-04-29T16:18:50;15.90;99.90
19252;DHT22;9760;50.944;5.304;2023-04-29T16:21:15;15.90;99.90
19252;DHT22;9760;50.944;5.304;2023-04-29T16:23:42;15.70;99.90
19252;DHT22;9760;50.944;5.304;2023-04-29T16:26:08;15.80;99.90
19252;DHT22;9760;50.944;5.304;2023-04-29T16:28:34;15.90;99.90
19252;DHT22;9760;50.944;5.304;2023-04-29T16:30:59;16.00;99.90